SKMRSKSM

Guest
Details From SKMR - LOS GARZONES
To SKSM - SIMON BOLIVAR
Flight Number -
Tags generated
Created
Modified
Stats Distance 167 nm / 310 km
Max Altitude 21,400 ft / 6,523 m
Waypoints 3
Social Downloads 0
Likes 0
Share VATSIM

Download

Looking for another format? Having issues loading an existing format? Contact us
Advertisement - Login to hide

Notes

Basic altitude profile: - Ascent Rate: 1800ft/min - Ascent Speed: 250kts - Cruise Altitude: 35000ft - Cruise Speed: 420kts - Descent Rate: 1500ft/min - Descent Speed: 250kts Options: - Use NATs: yes - Use PACOTS: yes - Use low airways: yes - Use high airways: yes

Route

SKMR KOMPI SKSM

ID Type Via Altitude Latitude Longitude Leg Dist Tot Dist Heading (true) Name
O SKMR APT - 0 ft / 0 m 8.82374˚ -75.82583˚ - 0 nm - LOS GARZONES
KOMPI FIX - 21,400 ft / 6,523 m 9.72083˚ -75.15639˚ 66 nm 66 nm 36° / 36° -
O SKSM APT - 0 ft / 0 m 11.11965˚ -74.23065˚ 100 nm 167 nm 33° / 33° SIMON BOLIVAR

Altitude Profile

Advertisement - Login to hide

Weather


0- 5 10 15 20 25 30 35+ Temperature / ° C

Clouds and Precipitation
Forecast for 2018-05-25 00:00 UTC. Updated 2 hours ago

Ground ~20,000 ft ~40,000 ft Winds

SKMR

Details ICAO SKMR (MTR)
Name LOS GARZONES
Region Colombia
Timezone America/Bogota (UTC-5.0)
Stats Elevation 36 ft / 11 m (AMSL)
Location 8.823745° -75.825832°
Runways 1
Magnetic Variation 6.827° W

METAR

SKMR 250100Z 00000KT 9999 SCT020 BKN100 25/25 A2984

Decode

TAF

Not found

Departure Runways

ID Width Length Bearing (true) Bearing (mag) Surface Threshold Offset Overrun Length
14 115 ft / 35 m 6,302 ft / 1,921 m 137.94° 144.77° Asphalt 0 ft / 0 m 0 ft / 0 m
32 115 ft / 35 m 6,302 ft / 1,921 m 317.94° 324.77° Asphalt 0 ft / 0 m 0 ft / 0 m

SKSM

Details ICAO SKSM (SMR)
Name SIMON BOLIVAR
Region Colombia
Timezone Unknown (UTC+0.0)
Stats Elevation 22 ft / 7 m (AMSL)
Location 11.119649° -74.230646°
Runways 1
Magnetic Variation 8.156° W

METAR

SKSM 250100Z 18006KT 9999 FEW020 BKN100 29/25 A2985

Decode

TAF

Not found

Destination Runways

ID Width Length Bearing (true) Bearing (mag) Surface Threshold Offset Overrun Length
01 98 ft / 30 m 5,618 ft / 1,712 m 358.67° 6.83° Asphalt 0 ft / 0 m 0 ft / 0 m
19 98 ft / 30 m 5,618 ft / 1,712 m 178.67° 186.83° Asphalt 0 ft / 0 m 0 ft / 0 m